sensor_id;sensor_type;location;lat;lon;timestamp;P1;durP1;ratioP1;P2;durP2;ratioP2
19735;SDS011;32064;49.310;8.646;2022-12-18T00:01:30;41.97;;;23.20;;
19735;SDS011;32064;49.310;8.646;2022-12-18T00:04:00;40.90;;;22.70;;
19735;SDS011;32064;49.310;8.646;2022-12-18T00:06:28;49.57;;;23.00;;
19735;SDS011;32064;49.310;8.646;2022-12-18T00:08:55;38.87;;;22.73;;
19735;SDS011;32064;49.310;8.646;2022-12-18T00:11:23;45.70;;;22.57;;
19735;SDS011;32064;49.310;8.646;2022-12-18T00:13:50;38.47;;;22.77;;
19735;SDS011;32064;49.310;8.646;2022-12-18T00:16:20;50.50;;;23.07;;
19735;SDS011;32064;49.310;8.646;2022-12-18T00:18:47;46.57;;;22.30;;
19735;SDS011;32064;49.310;8.646;2022-12-18T00:21:13;48.73;;;24.07;;
19735;SDS011;32064;49.310;8.646;2022-12-18T00:23:40;62.87;;;24.93;;
19735;SDS011;32064;49.310;8.646;2022-12-18T00:26:11;43.00;;;23.87;;
19735;SDS011;32064;49.310;8.646;2022-12-18T00:28:41;37.77;;;21.80;;
19735;SDS011;32064;49.310;8.646;2022-12-18T00:31:09;50.87;;;22.77;;
19735;SDS011;32064;49.310;8.646;2022-12-18T00:33:36;48.00;;;23.10;;
19735;SDS011;32064;49.310;8.646;2022-12-18T00:36:02;43.60;;;21.60;;
19735;SDS011;32064;49.310;8.646;2022-12-18T00:38:29;42.37;;;23.37;;
19735;SDS011;32064;49.310;8.646;2022-12-18T00:40:55;40.97;;;22.60;;
19735;SDS011;32064;49.310;8.646;2022-12-18T00:43:20;44.27;;;23.50;;
19735;SDS011;32064;49.310;8.646;2022-12-18T00:45:46;42.03;;;22.90;;
19735;SDS011;32064;49.310;8.646;2022-12-18T00:48:11;37.57;;;21.87;;
19735;SDS011;32064;49.310;8.646;2022-12-18T00:50:37;37.43;;;21.40;;
19735;SDS011;32064;49.310;8.646;2022-12-18T00:53:03;41.70;;;22.20;;
19735;SDS011;32064;49.310;8.646;2022-12-18T00:55:28;40.27;;;20.90;;
19735;SDS011;32064;49.310;8.646;2022-12-18T00:57:54;36.87;;;21.77;;
19735;SDS011;32064;49.310;8.646;2022-12-18T01:00:19;37.20;;;20.90;;
19735;SDS011;32064;49.310;8.646;2022-12-18T01:02:44;39.07;;;21.87;;
19735;SDS011;32064;49.310;8.646;2022-12-18T01:05:10;35.90;;;21.20;;
19735;SDS011;32064;49.310;8.646;2022-12-18T01:07:37;49.23;;;22.37;;
19735;SDS011;32064;49.310;8.646;2022-12-18T01:10:03;44.63;;;21.37;;
19735;SDS011;32064;49.310;8.646;2022-12-18T01:12:28;58.63;;;22.43;;
19735;SDS011;32064;49.310;8.646;2022-12-18T01:14:54;40.53;;;21.37;;
19735;SDS011;32064;49.310;8.646;2022-12-18T01:17:19;39.40;;;22.30;;
19735;SDS011;32064;49.310;8.646;2022-12-18T01:19:45;42.27;;;21.67;;
19735;SDS011;32064;49.310;8.646;2022-12-18T01:22:10;42.90;;;21.33;;
19735;SDS011;32064;49.310;8.646;2022-12-18T01:24:35;40.17;;;22.03;;
19735;SDS011;32064;49.310;8.646;2022-12-18T01:27:01;41.43;;;21.53;;
19735;SDS011;32064;49.310;8.646;2022-12-18T01:29:26;33.67;;;19.27;;
19735;SDS011;32064;49.310;8.646;2022-12-18T01:31:54;42.13;;;21.93;;
19735;SDS011;32064;49.310;8.646;2022-12-18T01:34:20;39.23;;;21.87;;
19735;SDS011;32064;49.310;8.646;2022-12-18T01:36:45;37.87;;;21.87;;
19735;SDS011;32064;49.310;8.646;2022-12-18T01:39:12;48.87;;;22.03;;
19735;SDS011;32064;49.310;8.646;2022-12-18T01:41:38;44.03;;;22.37;;
19735;SDS011;32064;49.310;8.646;2022-12-18T01:47:12;45.93;;;23.40;;
19735;SDS011;32064;49.310;8.646;2022-12-18T01:49:43;44.03;;;24.03;;
19735;SDS011;32064;49.310;8.646;2022-12-18T01:52:08;62.87;;;23.97;;
19735;SDS011;32064;49.310;8.646;2022-12-18T01:54:34;41.33;;;23.73;;
19735;SDS011;32064;49.310;8.646;2022-12-18T01:56:59;45.50;;;23.23;;
19735;SDS011;32064;49.310;8.646;2022-12-18T01:59:26;44.60;;;23.40;;
19735;SDS011;32064;49.310;8.646;2022-12-18T02:01:52;43.33;;;22.73;;
19735;SDS011;32064;49.310;8.646;2022-12-18T02:04:25;42.53;;;22.60;;
19735;SDS011;32064;49.310;8.646;2022-12-18T02:06:55;40.63;;;22.07;;
19735;SDS011;32064;49.310;8.646;2022-12-18T02:09:36;43.43;;;21.90;;
19735;SDS011;32064;49.310;8.646;2022-12-18T02:12:13;45.97;;;23.47;;
19735;SDS011;32064;49.310;8.646;2022-12-18T02:14:45;41.60;;;22.40;;
19735;SDS011;32064;49.310;8.646;2022-12-18T02:17:21;56.33;;;22.47;;
19735;SDS011;32064;49.310;8.646;2022-12-18T02:25:13;42.00;;;22.03;;
19735;SDS011;32064;49.310;8.646;2022-12-18T02:27:43;50.27;;;21.27;;
19735;SDS011;32064;49.310;8.646;2022-12-18T02:30:12;51.50;;;22.83;;
19735;SDS011;32064;49.310;8.646;2022-12-18T02:32:46;42.27;;;21.90;;
19735;SDS011;32064;49.310;8.646;2022-12-18T02:35:19;45.63;;;22.90;;
19735;SDS011;32064;49.310;8.646;2022-12-18T02:37:49;42.27;;;22.43;;
19735;SDS011;32064;49.310;8.646;2022-12-18T02:40:18;43.30;;;22.47;;
19735;SDS011;32064;49.310;8.646;2022-12-18T02:42:46;42.93;;;22.63;;
19735;SDS011;32064;49.310;8.646;2022-12-18T02:45:12;43.23;;;21.87;;
19735;SDS011;32064;49.310;8.646;2022-12-18T02:47:38;37.13;;;21.13;;
19735;SDS011;32064;49.310;8.646;2022-12-18T02:50:30;34.17;;;20.17;;
19735;SDS011;32064;49.310;8.646;2022-12-18T02:53:24;46.63;;;20.70;;
19735;SDS011;32064;49.310;8.646;2022-12-18T02:56:03;40.63;;;20.50;;
19735;SDS011;32064;49.310;8.646;2022-12-18T03:01:24;37.20;;;20.50;;
19735;SDS011;32064;49.310;8.646;2022-12-18T03:04:12;38.77;;;19.23;;
19735;SDS011;32064;49.310;8.646;2022-12-18T03:06:45;35.43;;;19.70;;
19735;SDS011;32064;49.310;8.646;2022-12-18T03:09:15;37.30;;;20.13;;
19735;SDS011;32064;49.310;8.646;2022-12-18T03:11:49;37.27;;;19.20;;
19735;SDS011;32064;49.310;8.646;2022-12-18T03:14:39;47.13;;;19.87;;
19735;SDS011;32064;49.310;8.646;2022-12-18T03:17:07;35.80;;;19.37;;
19735;SDS011;32064;49.310;8.646;2022-12-18T03:19:40;33.93;;;19.73;;
19735;SDS011;32064;49.310;8.646;2022-12-18T03:22:08;52.40;;;19.43;;
19735;SDS011;32064;49.310;8.646;2022-12-18T03:24:35;35.70;;;19.20;;
19735;SDS011;32064;49.310;8.646;2022-12-18T03:27:06;34.73;;;19.17;;
19735;SDS011;32064;49.310;8.646;2022-12-18T03:29:44;34.60;;;18.57;;
19735;SDS011;32064;49.310;8.646;2022-12-18T03:32:19;32.43;;;19.13;;
19735;SDS011;32064;49.310;8.646;2022-12-18T03:34:51;34.50;;;19.93;;
19735;SDS011;32064;49.310;8.646;2022-12-18T03:37:21;32.80;;;18.20;;
19735;SDS011;32064;49.310;8.646;2022-12-18T03:39:49;32.63;;;18.53;;
19735;SDS011;32064;49.310;8.646;2022-12-18T03:42:16;36.57;;;19.57;;
19735;SDS011;32064;49.310;8.646;2022-12-18T03:45:08;29.37;;;17.90;;
19735;SDS011;32064;49.310;8.646;2022-12-18T03:47:44;30.90;;;18.80;;
19735;SDS011;32064;49.310;8.646;2022-12-18T03:50:33;32.50;;;18.03;;
19735;SDS011;32064;49.310;8.646;2022-12-18T03:53:29;30.83;;;18.43;;
19735;SDS011;32064;49.310;8.646;2022-12-18T03:55:58;32.60;;;18.10;;
19735;SDS011;32064;49.310;8.646;2022-12-18T03:58:25;31.70;;;18.07;;
19735;SDS011;32064;49.310;8.646;2022-12-18T04:00:53;30.67;;;18.73;;
19735;SDS011;32064;49.310;8.646;2022-12-18T04:03:23;30.67;;;18.30;;
19735;SDS011;32064;49.310;8.646;2022-12-18T04:05:52;32.97;;;18.73;;
19735;SDS011;32064;49.310;8.646;2022-12-18T04:08:20;32.00;;;18.70;;
19735;SDS011;32064;49.310;8.646;2022-12-18T04:10:47;36.07;;;20.17;;
19735;SDS011;32064;49.310;8.646;2022-12-18T04:13:13;31.57;;;19.03;;
19735;SDS011;32064;49.310;8.646;2022-12-18T04:15:47;31.03;;;18.07;;
19735;SDS011;32064;49.310;8.646;2022-12-18T04:18:12;32.10;;;18.27;;
19735;SDS011;32064;49.310;8.646;2022-12-18T04:20:38;27.87;;;18.70;;
19735;SDS011;32064;49.310;8.646;2022-12-18T04:23:03;54.83;;;19.53;;
19735;SDS011;32064;49.310;8.646;2022-12-18T04:25:28;33.90;;;18.83;;
19735;SDS011;32064;49.310;8.646;2022-12-18T04:27:54;37.03;;;19.93;;
19735;SDS011;32064;49.310;8.646;2022-12-18T04:30:19;37.30;;;20.03;;
19735;SDS011;32064;49.310;8.646;2022-12-18T04:32:45;43.03;;;19.27;;
19735;SDS011;32064;49.310;8.646;2022-12-18T04:35:10;32.47;;;18.80;;
19735;SDS011;32064;49.310;8.646;2022-12-18T04:37:36;39.13;;;19.47;;
19735;SDS011;32064;49.310;8.646;2022-12-18T04:40:02;34.47;;;19.60;;
19735;SDS011;32064;49.310;8.646;2022-12-18T04:42:28;36.80;;;19.77;;
19735;SDS011;32064;49.310;8.646;2022-12-18T04:44:53;33.17;;;18.83;;
19735;SDS011;32064;49.310;8.646;2022-12-18T04:47:18;33.13;;;19.30;;
19735;SDS011;32064;49.310;8.646;2022-12-18T04:49:44;34.03;;;18.53;;
19735;SDS011;32064;49.310;8.646;2022-12-18T04:52:09;32.97;;;18.93;;
19735;SDS011;32064;49.310;8.646;2022-12-18T04:54:34;34.77;;;18.33;;
19735;SDS011;32064;49.310;8.646;2022-12-18T04:57:00;30.67;;;18.13;;
19735;SDS011;32064;49.310;8.646;2022-12-18T04:59:25;30.50;;;18.47;;
19735;SDS011;32064;49.310;8.646;2022-12-18T05:01:51;31.60;;;17.83;;
19735;SDS011;32064;49.310;8.646;2022-12-18T05:04:16;32.53;;;17.70;;
19735;SDS011;32064;49.310;8.646;2022-12-18T05:06:41;30.33;;;17.93;;
19735;SDS011;32064;49.310;8.646;2022-12-18T05:09:07;33.73;;;17.37;;
19735;SDS011;32064;49.310;8.646;2022-12-18T05:11:32;32.67;;;19.07;;
19735;SDS011;32064;49.310;8.646;2022-12-18T05:13:57;31.37;;;18.63;;
19735;SDS011;32064;49.310;8.646;2022-12-18T05:16:23;32.93;;;18.40;;
19735;SDS011;32064;49.310;8.646;2022-12-18T05:18:48;35.13;;;18.20;;
19735;SDS011;32064;49.310;8.646;2022-12-18T05:21:14;32.70;;;18.67;;
19735;SDS011;32064;49.310;8.646;2022-12-18T05:23:39;34.47;;;17.80;;
19735;SDS011;32064;49.310;8.646;2022-12-18T05:26:05;31.83;;;18.13;;
19735;SDS011;32064;49.310;8.646;2022-12-18T05:28:33;31.23;;;18.13;;
19735;SDS011;32064;49.310;8.646;2022-12-18T05:31:00;28.13;;;17.43;;
19735;SDS011;32064;49.310;8.646;2022-12-18T05:33:29;32.23;;;17.47;;
19735;SDS011;32064;49.310;8.646;2022-12-18T05:35:57;32.33;;;18.47;;
19735;SDS011;32064;49.310;8.646;2022-12-18T05:38:28;27.07;;;16.73;;
19735;SDS011;32064;49.310;8.646;2022-12-18T05:40:55;33.47;;;17.93;;
19735;SDS011;32064;49.310;8.646;2022-12-18T05:43:21;33.53;;;18.47;;
19735;SDS011;32064;49.310;8.646;2022-12-18T05:45:48;30.80;;;18.00;;
19735;SDS011;32064;49.310;8.646;2022-12-18T05:48:14;33.83;;;17.33;;
19735;SDS011;32064;49.310;8.646;2022-12-18T05:50:40;30.63;;;18.43;;
19735;SDS011;32064;49.310;8.646;2022-12-18T05:53:07;31.47;;;19.00;;
19735;SDS011;32064;49.310;8.646;2022-12-18T05:55:34;30.97;;;18.77;;
19735;SDS011;32064;49.310;8.646;2022-12-18T05:58:04;32.93;;;19.60;;
19735;SDS011;32064;49.310;8.646;2022-12-18T06:00:31;30.20;;;18.93;;
19735;SDS011;32064;49.310;8.646;2022-12-18T06:02:57;31.87;;;19.77;;
19735;SDS011;32064;49.310;8.646;2022-12-18T06:05:23;28.80;;;17.67;;
19735;SDS011;32064;49.310;8.646;2022-12-18T06:07:48;33.43;;;20.43;;
19735;SDS011;32064;49.310;8.646;2022-12-18T06:10:14;27.30;;;18.73;;
19735;SDS011;32064;49.310;8.646;2022-12-18T06:12:39;30.53;;;19.10;;
19735;SDS011;32064;49.310;8.646;2022-12-18T06:15:05;26.77;;;18.00;;
19735;SDS011;32064;49.310;8.646;2022-12-18T06:17:31;31.90;;;18.80;;
19735;SDS011;32064;49.310;8.646;2022-12-18T06:19:57;30.53;;;19.07;;
19735;SDS011;32064;49.310;8.646;2022-12-18T06:22:23;29.67;;;17.93;;
19735;SDS011;32064;49.310;8.646;2022-12-18T06:24:48;31.30;;;18.63;;
19735;SDS011;32064;49.310;8.646;2022-12-18T06:27:14;29.50;;;18.33;;
19735;SDS011;32064;49.310;8.646;2022-12-18T06:29:40;26.60;;;17.77;;
19735;SDS011;32064;49.310;8.646;2022-12-18T06:32:05;28.77;;;17.83;;
19735;SDS011;32064;49.310;8.646;2022-12-18T06:34:31;30.33;;;18.80;;
19735;SDS011;32064;49.310;8.646;2022-12-18T06:36:57;29.43;;;17.53;;
19735;SDS011;32064;49.310;8.646;2022-12-18T06:39:23;27.07;;;18.17;;
19735;SDS011;32064;49.310;8.646;2022-12-18T06:41:49;31.57;;;19.17;;
19735;SDS011;32064;49.310;8.646;2022-12-18T06:44:14;28.73;;;19.07;;
19735;SDS011;32064;49.310;8.646;2022-12-18T06:46:40;32.27;;;19.20;;
19735;SDS011;32064;49.310;8.646;2022-12-18T06:49:05;31.90;;;19.50;;
19735;SDS011;32064;49.310;8.646;2022-12-18T06:51:31;28.00;;;17.90;;
19735;SDS011;32064;49.310;8.646;2022-12-18T06:53:56;28.80;;;17.90;;
19735;SDS011;32064;49.310;8.646;2022-12-18T06:56:21;32.40;;;18.40;;
19735;SDS011;32064;49.310;8.646;2022-12-18T06:58:50;30.67;;;19.20;;
19735;SDS011;32064;49.310;8.646;2022-12-18T07:01:15;32.50;;;19.83;;
19735;SDS011;32064;49.310;8.646;2022-12-18T07:03:41;28.03;;;18.33;;
19735;SDS011;32064;49.310;8.646;2022-12-18T07:06:14;28.03;;;18.50;;
19735;SDS011;32064;49.310;8.646;2022-12-18T07:08:41;31.17;;;18.63;;
19735;SDS011;32064;49.310;8.646;2022-12-18T07:11:07;29.07;;;17.37;;
19735;SDS011;32064;49.310;8.646;2022-12-18T07:13:32;30.87;;;19.20;;
19735;SDS011;32064;49.310;8.646;2022-12-18T07:16:17;28.63;;;19.07;;
19735;SDS011;32064;49.310;8.646;2022-12-18T07:18:43;29.73;;;19.53;;
19735;SDS011;32064;49.310;8.646;2022-12-18T07:21:11;28.17;;;18.23;;
19735;SDS011;32064;49.310;8.646;2022-12-18T07:23:41;33.37;;;19.07;;
19735;SDS011;32064;49.310;8.646;2022-12-18T07:26:07;28.93;;;17.50;;
19735;SDS011;32064;49.310;8.646;2022-12-18T07:28:35;28.70;;;19.07;;
19735;SDS011;32064;49.310;8.646;2022-12-18T07:31:02;27.93;;;17.73;;
19735;SDS011;32064;49.310;8.646;2022-12-18T07:33:29;29.23;;;18.40;;
19735;SDS011;32064;49.310;8.646;2022-12-18T07:35:54;27.97;;;17.77;;
19735;SDS011;32064;49.310;8.646;2022-12-18T07:38:20;26.67;;;17.73;;
19735;SDS011;32064;49.310;8.646;2022-12-18T07:40:45;29.50;;;18.77;;
19735;SDS011;32064;49.310;8.646;2022-12-18T07:43:11;27.37;;;17.80;;
19735;SDS011;32064;49.310;8.646;2022-12-18T07:45:36;29.10;;;18.00;;
19735;SDS011;32064;49.310;8.646;2022-12-18T07:48:01;28.73;;;18.90;;
19735;SDS011;32064;49.310;8.646;2022-12-18T07:50:27;29.77;;;20.03;;
19735;SDS011;32064;49.310;8.646;2022-12-18T07:52:52;28.10;;;18.83;;
19735;SDS011;32064;49.310;8.646;2022-12-18T07:55:18;28.67;;;18.60;;
19735;SDS011;32064;49.310;8.646;2022-12-18T07:57:43;30.73;;;18.40;;
19735;SDS011;32064;49.310;8.646;2022-12-18T08:00:08;31.10;;;19.37;;
19735;SDS011;32064;49.310;8.646;2022-12-18T08:02:35;26.30;;;18.13;;
19735;SDS011;32064;49.310;8.646;2022-12-18T08:05:00;30.87;;;19.43;;
19735;SDS011;32064;49.310;8.646;2022-12-18T08:07:25;29.30;;;19.17;;
19735;SDS011;32064;49.310;8.646;2022-12-18T08:09:51;27.40;;;18.17;;
19735;SDS011;32064;49.310;8.646;2022-12-18T08:12:16;29.30;;;18.37;;
19735;SDS011;32064;49.310;8.646;2022-12-18T08:14:42;27.23;;;17.40;;
19735;SDS011;32064;49.310;8.646;2022-12-18T08:17:07;29.30;;;19.43;;
19735;SDS011;32064;49.310;8.646;2022-12-18T08:19:32;26.53;;;17.90;;
19735;SDS011;32064;49.310;8.646;2022-12-18T08:21:58;32.13;;;18.27;;
19735;SDS011;32064;49.310;8.646;2022-12-18T08:24:23;30.07;;;17.30;;
19735;SDS011;32064;49.310;8.646;2022-12-18T08:26:48;26.63;;;17.53;;
19735;SDS011;32064;49.310;8.646;2022-12-18T08:29:14;28.03;;;17.90;;
19735;SDS011;32064;49.310;8.646;2022-12-18T08:31:39;25.03;;;16.63;;
19735;SDS011;32064;49.310;8.646;2022-12-18T08:34:05;31.53;;;18.77;;
19735;SDS011;32064;49.310;8.646;2022-12-18T08:36:30;27.67;;;18.70;;
19735;SDS011;32064;49.310;8.646;2022-12-18T08:38:56;25.23;;;17.43;;
19735;SDS011;32064;49.310;8.646;2022-12-18T08:41:22;31.00;;;19.43;;
19735;SDS011;32064;49.310;8.646;2022-12-18T08:43:48;27.30;;;17.90;;
19735;SDS011;32064;49.310;8.646;2022-12-18T08:46:36;29.77;;;19.00;;
19735;SDS011;32064;49.310;8.646;2022-12-18T08:49:04;28.00;;;17.63;;
19735;SDS011;32064;49.310;8.646;2022-12-18T08:51:31;27.00;;;16.97;;
19735;SDS011;32064;49.310;8.646;2022-12-18T08:53:56;28.83;;;18.53;;
19735;SDS011;32064;49.310;8.646;2022-12-18T08:56:22;30.30;;;19.43;;
19735;SDS011;32064;49.310;8.646;2022-12-18T08:58:47;28.07;;;18.40;;
19735;SDS011;32064;49.310;8.646;2022-12-18T09:01:15;30.00;;;18.30;;
19735;SDS011;32064;49.310;8.646;2022-12-18T09:03:41;26.53;;;18.53;;
19735;SDS011;32064;49.310;8.646;2022-12-18T09:06:06;28.50;;;18.30;;
19735;SDS011;32064;49.310;8.646;2022-12-18T09:08:35;30.80;;;18.93;;
19735;SDS011;32064;49.310;8.646;2022-12-18T09:11:01;33.93;;;19.27;;
19735;SDS011;32064;49.310;8.646;2022-12-18T09:13:27;29.27;;;18.67;;
19735;SDS011;32064;49.310;8.646;2022-12-18T09:15:53;28.73;;;19.07;;
19735;SDS011;32064;49.310;8.646;2022-12-18T09:18:20;36.47;;;21.23;;
19735;SDS011;32064;49.310;8.646;2022-12-18T09:20:46;32.50;;;19.97;;
19735;SDS011;32064;49.310;8.646;2022-12-18T09:23:12;26.23;;;18.10;;
19735;SDS011;32064;49.310;8.646;2022-12-18T09:25:38;26.40;;;18.03;;
19735;SDS011;32064;49.310;8.646;2022-12-18T09:28:10;30.97;;;19.60;;
19735;SDS011;32064;49.310;8.646;2022-12-18T09:30:37;30.30;;;18.20;;
19735;SDS011;32064;49.310;8.646;2022-12-18T09:33:04;28.03;;;18.27;;
19735;SDS011;32064;49.310;8.646;2022-12-18T09:35:29;29.63;;;19.13;;
19735;SDS011;32064;49.310;8.646;2022-12-18T09:37:54;27.87;;;19.33;;
19735;SDS011;32064;49.310;8.646;2022-12-18T09:40:21;28.27;;;19.60;;
19735;SDS011;32064;49.310;8.646;2022-12-18T09:42:54;27.83;;;19.90;;
19735;SDS011;32064;49.310;8.646;2022-12-18T09:45:24;32.23;;;19.87;;
19735;SDS011;32064;49.310;8.646;2022-12-18T09:47:50;28.23;;;20.03;;
19735;SDS011;32064;49.310;8.646;2022-12-18T09:52:57;28.90;;;20.47;;
19735;SDS011;32064;49.310;8.646;2022-12-18T09:55:34;29.80;;;19.20;;
19735;SDS011;32064;49.310;8.646;2022-12-18T09:58:11;27.00;;;20.60;;
19735;SDS011;32064;49.310;8.646;2022-12-18T10:00:42;29.47;;;20.53;;
19735;SDS011;32064;49.310;8.646;2022-12-18T10:03:11;27.93;;;19.03;;
19735;SDS011;32064;49.310;8.646;2022-12-18T10:11:10;31.20;;;19.93;;
19735;SDS011;32064;49.310;8.646;2022-12-18T10:14:02;28.43;;;19.60;;
19735;SDS011;32064;49.310;8.646;2022-12-18T10:20:28;28.67;;;19.33;;
19735;SDS011;32064;49.310;8.646;2022-12-18T10:22:41;29.67;;;20.07;;
19735;SDS011;32064;49.310;8.646;2022-12-18T10:27:43;29.97;;;19.20;;
19735;SDS011;32064;49.310;8.646;2022-12-18T10:30:14;28.67;;;19.30;;
19735;SDS011;32064;49.310;8.646;2022-12-18T10:32:46;32.10;;;20.77;;
19735;SDS011;32064;49.310;8.646;2022-12-18T10:35:25;29.20;;;19.90;;
19735;SDS011;32064;49.310;8.646;2022-12-18T10:38:05;29.73;;;19.77;;
19735;SDS011;32064;49.310;8.646;2022-12-18T10:40:33;31.53;;;21.00;;
19735;SDS011;32064;49.310;8.646;2022-12-18T10:43:14;33.97;;;20.23;;
19735;SDS011;32064;49.310;8.646;2022-12-18T10:45:40;30.37;;;20.33;;
19735;SDS011;32064;49.310;8.646;2022-12-18T10:48:19;30.70;;;20.30;;
19735;SDS011;32064;49.310;8.646;2022-12-18T10:50:50;30.17;;;18.73;;
19735;SDS011;32064;49.310;8.646;2022-12-18T10:53:27;30.50;;;19.47;;
19735;SDS011;32064;49.310;8.646;2022-12-18T10:55:55;29.37;;;18.47;;
19735;SDS011;32064;49.310;8.646;2022-12-18T10:58:28;31.10;;;20.77;;
19735;SDS011;32064;49.310;8.646;2022-12-18T11:03:32;29.53;;;17.83;;
19735;SDS011;32064;49.310;8.646;2022-12-18T11:06:05;30.97;;;20.13;;
19735;SDS011;32064;49.310;8.646;2022-12-18T11:08:32;30.33;;;18.57;;
19735;SDS011;32064;49.310;8.646;2022-12-18T11:10:58;30.97;;;20.23;;
19735;SDS011;32064;49.310;8.646;2022-12-18T11:13:25;30.93;;;20.43;;
19735;SDS011;32064;49.310;8.646;2022-12-18T11:15:53;30.83;;;20.43;;
19735;SDS011;32064;49.310;8.646;2022-12-18T11:18:19;31.20;;;19.30;;
19735;SDS011;32064;49.310;8.646;2022-12-18T11:20:51;33.87;;;19.77;;
19735;SDS011;32064;49.310;8.646;2022-12-18T11:23:20;29.53;;;19.13;;
19735;SDS011;32064;49.310;8.646;2022-12-18T11:25:52;33.77;;;20.73;;
19735;SDS011;32064;49.310;8.646;2022-12-18T11:28:37;28.73;;;18.67;;
19735;SDS011;32064;49.310;8.646;2022-12-18T11:31:39;29.83;;;20.13;;
19735;SDS011;32064;49.310;8.646;2022-12-18T11:33:59;30.83;;;19.47;;
19735;SDS011;32064;49.310;8.646;2022-12-18T11:36:27;31.67;;;20.33;;
19735;SDS011;32064;49.310;8.646;2022-12-18T11:38:57;29.53;;;19.97;;
19735;SDS011;32064;49.310;8.646;2022-12-18T11:41:32;28.50;;;19.77;;
19735;SDS011;32064;49.310;8.646;2022-12-18T11:44:44;28.83;;;19.83;;
19735;SDS011;32064;49.310;8.646;2022-12-18T11:47:15;30.13;;;19.03;;
19735;SDS011;32064;49.310;8.646;2022-12-18T11:49:47;32.80;;;20.63;;
19735;SDS011;32064;49.310;8.646;2022-12-18T11:54:40;31.73;;;20.33;;
19735;SDS011;32064;49.310;8.646;2022-12-18T11:57:09;30.80;;;19.57;;
19735;SDS011;32064;49.310;8.646;2022-12-18T11:59:52;28.50;;;20.60;;
19735;SDS011;32064;49.310;8.646;2022-12-18T12:05:51;29.53;;;19.57;;
19735;SDS011;32064;49.310;8.646;2022-12-18T12:11:56;31.00;;;20.27;;
19735;SDS011;32064;49.310;8.646;2022-12-18T12:17:37;31.13;;;21.57;;
19735;SDS011;32064;49.310;8.646;2022-12-18T12:20:17;35.33;;;21.27;;
19735;SDS011;32064;49.310;8.646;2022-12-18T12:34:29;33.43;;;20.90;;
19735;SDS011;32064;49.310;8.646;2022-12-18T12:37:05;30.87;;;19.27;;
19735;SDS011;32064;49.310;8.646;2022-12-18T12:39:38;31.50;;;21.30;;
19735;SDS011;32064;49.310;8.646;2022-12-18T12:42:18;32.50;;;20.13;;
19735;SDS011;32064;49.310;8.646;2022-12-18T12:45:11;31.47;;;19.63;;
19735;SDS011;32064;49.310;8.646;2022-12-18T12:47:42;27.87;;;19.53;;
19735;SDS011;32064;49.310;8.646;2022-12-18T12:50:13;30.10;;;19.40;;
19735;SDS011;32064;49.310;8.646;2022-12-18T12:52:44;29.50;;;20.00;;
19735;SDS011;32064;49.310;8.646;2022-12-18T12:55:14;30.03;;;20.53;;
19735;SDS011;32064;49.310;8.646;2022-12-18T12:58:05;31.43;;;18.67;;
19735;SDS011;32064;49.310;8.646;2022-12-18T13:00:41;31.07;;;20.30;;
19735;SDS011;32064;49.310;8.646;2022-12-18T13:06:12;30.60;;;19.50;;
19735;SDS011;32064;49.310;8.646;2022-12-18T13:08:55;31.07;;;20.67;;
19735;SDS011;32064;49.310;8.646;2022-12-18T13:11:38;27.27;;;18.77;;
19735;SDS011;32064;49.310;8.646;2022-12-18T13:14:28;29.97;;;19.03;;
19735;SDS011;32064;49.310;8.646;2022-12-18T13:22:40;29.60;;;20.70;;
19735;SDS011;32064;49.310;8.646;2022-12-18T13:25:28;33.47;;;21.00;;
19735;SDS011;32064;49.310;8.646;2022-12-18T13:30:42;32.07;;;19.00;;
19735;SDS011;32064;49.310;8.646;2022-12-18T13:33:34;28.77;;;18.97;;
19735;SDS011;32064;49.310;8.646;2022-12-18T13:38:38;31.13;;;18.87;;
19735;SDS011;32064;49.310;8.646;2022-12-18T13:43:43;32.57;;;20.93;;
19735;SDS011;32064;49.310;8.646;2022-12-18T13:48:55;30.60;;;20.03;;
19735;SDS011;32064;49.310;8.646;2022-12-18T13:51:21;33.03;;;20.07;;
19735;SDS011;32064;49.310;8.646;2022-12-18T13:53:49;31.60;;;19.67;;
19735;SDS011;32064;49.310;8.646;2022-12-18T13:56:22;31.47;;;19.30;;
19735;SDS011;32064;49.310;8.646;2022-12-18T14:01:46;34.57;;;21.23;;
19735;SDS011;32064;49.310;8.646;2022-12-18T14:04:26;32.00;;;20.70;;
19735;SDS011;32064;49.310;8.646;2022-12-18T14:06:55;29.53;;;18.70;;
19735;SDS011;32064;49.310;8.646;2022-12-18T14:09:42;33.27;;;20.90;;
19735;SDS011;32064;49.310;8.646;2022-12-18T14:12:27;31.90;;;19.10;;
19735;SDS011;32064;49.310;8.646;2022-12-18T14:20:24;35.37;;;20.20;;
19735;SDS011;32064;49.310;8.646;2022-12-18T14:22:50;31.37;;;20.47;;
19735;SDS011;32064;49.310;8.646;2022-12-18T14:25:26;33.23;;;21.33;;
19735;SDS011;32064;49.310;8.646;2022-12-18T14:27:59;33.63;;;21.57;;
19735;SDS011;32064;49.310;8.646;2022-12-18T14:33:10;33.70;;;20.37;;
19735;SDS011;32064;49.310;8.646;2022-12-18T14:35:38;30.90;;;19.53;;
19735;SDS011;32064;49.310;8.646;2022-12-18T14:38:26;34.23;;;21.23;;
19735;SDS011;32064;49.310;8.646;2022-12-18T14:43:41;30.20;;;18.33;;
19735;SDS011;32064;49.310;8.646;2022-12-18T14:49:47;35.80;;;21.50;;
19735;SDS011;32064;49.310;8.646;2022-12-18T14:51:54;29.97;;;19.43;;
19735;SDS011;32064;49.310;8.646;2022-12-18T14:54:22;30.83;;;19.40;;
19735;SDS011;32064;49.310;8.646;2022-12-18T14:56:50;31.00;;;20.70;;
19735;SDS011;32064;49.310;8.646;2022-12-18T14:59:21;31.63;;;19.40;;
19735;SDS011;32064;49.310;8.646;2022-12-18T15:04:43;31.73;;;19.90;;
19735;SDS011;32064;49.310;8.646;2022-12-18T15:07:42;34.87;;;21.93;;
19735;SDS011;32064;49.310;8.646;2022-12-18T15:10:15;33.10;;;20.70;;
19735;SDS011;32064;49.310;8.646;2022-12-18T15:13:08;31.40;;;20.30;;
19735;SDS011;32064;49.310;8.646;2022-12-18T15:20:33;28.87;;;19.27;;
19735;SDS011;32064;49.310;8.646;2022-12-18T15:23:17;29.00;;;19.33;;
19735;SDS011;32064;49.310;8.646;2022-12-18T15:25:42;32.57;;;20.50;;
19735;SDS011;32064;49.310;8.646;2022-12-18T15:28:24;31.27;;;19.47;;
19735;SDS011;32064;49.310;8.646;2022-12-18T15:31:03;31.50;;;19.20;;
19735;SDS011;32064;49.310;8.646;2022-12-18T15:36:19;31.30;;;19.80;;
19735;SDS011;32064;49.310;8.646;2022-12-18T15:38:47;30.43;;;19.43;;
19735;SDS011;32064;49.310;8.646;2022-12-18T15:41:20;29.47;;;18.50;;
19735;SDS011;32064;49.310;8.646;2022-12-18T15:43:47;33.63;;;20.43;;
19735;SDS011;32064;49.310;8.646;2022-12-18T15:46:23;31.73;;;20.27;;
19735;SDS011;32064;49.310;8.646;2022-12-18T15:48:51;33.67;;;19.00;;
19735;SDS011;32064;49.310;8.646;2022-12-18T15:51:33;32.87;;;19.90;;
19735;SDS011;32064;49.310;8.646;2022-12-18T15:54:01;34.93;;;19.37;;
19735;SDS011;32064;49.310;8.646;2022-12-18T15:56:28;32.47;;;20.03;;
19735;SDS011;32064;49.310;8.646;2022-12-18T15:59:17;29.70;;;19.33;;
19735;SDS011;32064;49.310;8.646;2022-12-18T16:01:44;31.93;;;19.50;;
19735;SDS011;32064;49.310;8.646;2022-12-18T16:04:13;31.53;;;18.43;;
19735;SDS011;32064;49.310;8.646;2022-12-18T16:06:51;33.53;;;19.60;;
19735;SDS011;32064;49.310;8.646;2022-12-18T16:09:20;30.57;;;19.27;;
19735;SDS011;32064;49.310;8.646;2022-12-18T16:11:46;31.00;;;19.40;;
19735;SDS011;32064;49.310;8.646;2022-12-18T16:14:17;31.80;;;20.40;;
19735;SDS011;32064;49.310;8.646;2022-12-18T16:16:54;27.87;;;18.83;;